Airport View

Enter AWOS ICAO identifier for current METAR.

ex. KFNL

KFXE 221853Z 09014G20KT 10SM SCT035 32/22 A2999 RMK AO2 LTG DSNT SW SLP156 T03220222

22 Jul 2019 19:24

Phone: 954-772-2537

Other Area AWOS: KPMP - KFLL - KBCT - KHWO

TAF KFXE 221720Z 2218/2318 08010KT P6SM SCT030 BKN120 FM230100 VRB04KT P6SM VCSH SCT030 BKN120 FM231400 23007KT P6SM VCSH SCT030 BKN100 FM231700 20010KT P6SM VCSH SCT025 SCT060 BKN250